sensor_id;sensor_type;location;lat;lon;timestamp;pressure;altitude;pressure_sealevel;temperature;humidity
80945;BME280;70400;50.934;11.590;2023-12-22T00:00:48;97987.00;;;4.69;64.25
80945;BME280;70400;50.934;11.590;2023-12-22T00:01:39;97974.81;;;4.77;63.89
80945;BME280;70400;50.934;11.590;2023-12-22T00:02:30;97987.50;;;4.72;63.46
80945;BME280;70400;50.934;11.590;2023-12-22T00:03:21;97989.16;;;4.73;63.50
80945;BME280;70400;50.934;11.590;2023-12-22T00:04:12;97989.31;;;4.72;64.03
80945;BME280;70400;50.934;11.590;2023-12-22T00:05:04;97990.44;;;4.69;64.04
80945;BME280;70400;50.934;11.590;2023-12-22T00:05:55;97988.13;;;4.66;63.61
80945;BME280;70400;50.934;11.590;2023-12-22T00:06:46;97986.34;;;4.67;63.87
80945;BME280;70400;50.934;11.590;2023-12-22T00:07:39;97991.06;;;4.63;64.22
80945;BME280;70400;50.934;11.590;2023-12-22T00:08:30;97986.13;;;4.60;64.53
80945;BME280;70400;50.934;11.590;2023-12-22T00:09:21;97992.03;;;4.62;63.46
80945;BME280;70400;50.934;11.590;2023-12-22T00:10:12;97988.28;;;4.65;62.65
80945;BME280;70400;50.934;11.590;2023-12-22T00:11:03;97993.53;;;4.73;63.41
80945;BME280;70400;50.934;11.590;2023-12-22T00:11:54;98009.69;;;4.68;63.20
80945;BME280;70400;50.934;11.590;2023-12-22T00:12:45;97995.50;;;4.71;62.21
80945;BME280;70400;50.934;11.590;2023-12-22T00:13:36;98010.75;;;4.84;62.20
80945;BME280;70400;50.934;11.590;2023-12-22T00:14:27;97998.31;;;4.77;62.42
80945;BME280;70400;50.934;11.590;2023-12-22T00:15:18;97992.91;;;4.71;61.77
80945;BME280;70400;50.934;11.590;2023-12-22T00:16:08;98004.63;;;4.67;62.21
80945;BME280;70400;50.934;11.590;2023-12-22T00:17:00;97988.50;;;4.71;62.64
80945;BME280;70400;50.934;11.590;2023-12-22T00:17:51;97996.50;;;4.78;63.40
80945;BME280;70400;50.934;11.590;2023-12-22T00:18:42;98004.47;;;4.68;62.58
80945;BME280;70400;50.934;11.590;2023-12-22T00:19:33;98014.06;;;4.68;62.21
80945;BME280;70400;50.934;11.590;2023-12-22T00:20:24;98010.50;;;4.69;62.94
80945;BME280;70400;50.934;11.590;2023-12-22T00:21:15;97997.28;;;4.70;62.33
80945;BME280;70400;50.934;11.590;2023-12-22T00:22:05;98000.56;;;4.72;62.09
80945;BME280;70400;50.934;11.590;2023-12-22T00:22:56;98015.75;;;4.77;61.68
80945;BME280;70400;50.934;11.590;2023-12-22T00:23:47;98013.81;;;4.79;61.48
80945;BME280;70400;50.934;11.590;2023-12-22T00:24:38;98005.53;;;4.84;62.08
80945;BME280;70400;50.934;11.590;2023-12-22T00:25:29;98013.50;;;4.82;61.97
80945;BME280;70400;50.934;11.590;2023-12-22T00:26:21;98007.63;;;4.80;61.95
80945;BME280;70400;50.934;11.590;2023-12-22T00:27:12;98011.22;;;4.79;61.95
80945;BME280;70400;50.934;11.590;2023-12-22T00:28:03;98009.28;;;4.81;61.33
80945;BME280;70400;50.934;11.590;2023-12-22T00:28:54;97999.53;;;4.91;61.52
80945;BME280;70400;50.934;11.590;2023-12-22T00:29:45;98002.91;;;4.84;61.77
80945;BME280;70400;50.934;11.590;2023-12-22T00:30:35;98001.78;;;4.86;63.26
80945;BME280;70400;50.934;11.590;2023-12-22T00:31:26;98007.81;;;4.87;61.50
80945;BME280;70400;50.934;11.590;2023-12-22T00:32:17;98006.53;;;4.91;61.82
80945;BME280;70400;50.934;11.590;2023-12-22T00:33:08;97995.78;;;4.94;61.40
80945;BME280;70400;50.934;11.590;2023-12-22T00:33:59;98001.34;;;4.99;61.88
80945;BME280;70400;50.934;11.590;2023-12-22T00:34:51;98004.94;;;4.98;61.83
80945;BME280;70400;50.934;11.590;2023-12-22T00:35:42;98008.56;;;5.05;60.58
80945;BME280;70400;50.934;11.590;2023-12-22T00:36:33;97996.63;;;5.03;61.31
80945;BME280;70400;50.934;11.590;2023-12-22T00:37:24;98004.59;;;5.01;60.90
80945;BME280;70400;50.934;11.590;2023-12-22T00:38:15;97988.13;;;5.00;61.23
80945;BME280;70400;50.934;11.590;2023-12-22T00:39:06;97999.56;;;4.99;61.67
80945;BME280;70400;50.934;11.590;2023-12-22T00:39:56;98015.06;;;5.01;62.52
80945;BME280;70400;50.934;11.590;2023-12-22T00:40:48;98003.97;;;4.99;61.88
80945;BME280;70400;50.934;11.590;2023-12-22T00:41:39;98014.25;;;5.00;62.22
80945;BME280;70400;50.934;11.590;2023-12-22T00:42:29;98005.59;;;5.00;61.01
80945;BME280;70400;50.934;11.590;2023-12-22T00:43:20;98019.78;;;4.97;62.09
80945;BME280;70400;50.934;11.590;2023-12-22T00:44:11;98013.28;;;5.02;62.14
80945;BME280;70400;50.934;11.590;2023-12-22T00:45:03;98006.94;;;5.04;62.19
80945;BME280;70400;50.934;11.590;2023-12-22T00:45:54;98015.06;;;5.01;62.68
80945;BME280;70400;50.934;11.590;2023-12-22T00:46:46;98013.44;;;5.00;61.54
80945;BME280;70400;50.934;11.590;2023-12-22T00:47:37;98012.16;;;5.04;61.83
80945;BME280;70400;50.934;11.590;2023-12-22T00:48:28;98018.84;;;5.07;62.15
80945;BME280;70400;50.934;11.590;2023-12-22T00:49:19;98014.75;;;5.04;61.17
80945;BME280;70400;50.934;11.590;2023-12-22T00:50:12;98004.94;;;5.06;62.14
80945;BME280;70400;50.934;11.590;2023-12-22T00:51:05;98012.66;;;5.08;61.23
80945;BME280;70400;50.934;11.590;2023-12-22T00:51:55;98011.31;;;5.04;61.57
80945;BME280;70400;50.934;11.590;2023-12-22T00:52:46;98009.38;;;5.06;61.33
80945;BME280;70400;50.934;11.590;2023-12-22T00:53:37;98010.50;;;5.03;61.95
80945;BME280;70400;50.934;11.590;2023-12-22T00:54:28;98008.41;;;5.07;61.39
80945;BME280;70400;50.934;11.590;2023-12-22T00:55:21;98008.59;;;5.13;61.33
80945;BME280;70400;50.934;11.590;2023-12-22T00:56:12;98003.66;;;5.02;61.69
80945;BME280;70400;50.934;11.590;2023-12-22T00:57:06;98001.19;;;5.00;61.82
80945;BME280;70400;50.934;11.590;2023-12-22T00:57:57;98017.84;;;4.99;62.30
80945;BME280;70400;50.934;11.590;2023-12-22T00:58:48;98011.84;;;5.07;61.55
80945;BME280;70400;50.934;11.590;2023-12-22T00:59:51;98012.50;;;5.09;61.52
80945;BME280;70400;50.934;11.590;2023-12-22T01:00:42;98015.13;;;5.09;61.38
80945;BME280;70400;50.934;11.590;2023-12-22T01:01:33;98019.16;;;5.04;61.97
80945;BME280;70400;50.934;11.590;2023-12-22T01:02:24;98004.47;;;5.03;61.82
80945;BME280;70400;50.934;11.590;2023-12-22T01:03:14;97988.31;;;5.07;61.96
80945;BME280;70400;50.934;11.590;2023-12-22T01:04:05;97993.88;;;5.04;61.21
80945;BME280;70400;50.934;11.590;2023-12-22T01:04:56;97990.47;;;5.12;61.82
80945;BME280;70400;50.934;11.590;2023-12-22T01:05:47;97999.47;;;5.17;61.66
80945;BME280;70400;50.934;11.590;2023-12-22T01:06:38;98003.53;;;5.12;61.79
80945;BME280;70400;50.934;11.590;2023-12-22T01:07:30;97978.03;;;5.14;62.32
80945;BME280;70400;50.934;11.590;2023-12-22T01:08:21;97992.13;;;5.21;62.13
80945;BME280;70400;50.934;11.590;2023-12-22T01:09:12;97991.63;;;5.17;61.90
80945;BME280;70400;50.934;11.590;2023-12-22T01:10:03;97989.97;;;5.16;61.68
80945;BME280;70400;50.934;11.590;2023-12-22T01:10:54;97989.00;;;5.17;62.41
80945;BME280;70400;50.934;11.590;2023-12-22T01:11:46;97991.78;;;5.16;62.39
80945;BME280;70400;50.934;11.590;2023-12-22T01:12:37;97996.19;;;5.15;62.61
80945;BME280;70400;50.934;11.590;2023-12-22T01:13:28;97984.09;;;5.14;62.16
80945;BME280;70400;50.934;11.590;2023-12-22T01:14:21;97993.91;;;5.20;62.43
80945;BME280;70400;50.934;11.590;2023-12-22T01:15:11;97984.09;;;5.14;62.36
80945;BME280;70400;50.934;11.590;2023-12-22T01:16:02;97990.47;;;5.12;62.97
80945;BME280;70400;50.934;11.590;2023-12-22T01:16:53;97991.44;;;5.11;61.91
80945;BME280;70400;50.934;11.590;2023-12-22T01:17:46;97987.00;;;5.11;63.11
80945;BME280;70400;50.934;11.590;2023-12-22T01:18:38;98005.47;;;5.10;62.29
80945;BME280;70400;50.934;11.590;2023-12-22T01:19:33;97988.00;;;5.10;62.40
80945;BME280;70400;50.934;11.590;2023-12-22T01:20:24;97994.50;;;5.06;62.82
80945;BME280;70400;50.934;11.590;2023-12-22T01:21:15;97992.22;;;5.03;62.71
80945;BME280;70400;50.934;11.590;2023-12-22T01:22:06;97981.31;;;5.08;62.65
80945;BME280;70400;50.934;11.590;2023-12-22T01:22:57;97981.44;;;5.06;62.75
80945;BME280;70400;50.934;11.590;2023-12-22T01:23:48;97976.84;;;5.00;62.74
80945;BME280;70400;50.934;11.590;2023-12-22T01:24:38;97992.69;;;4.98;62.77
80945;BME280;70400;50.934;11.590;2023-12-22T01:25:33;97991.53;;;5.01;62.86
80945;BME280;70400;50.934;11.590;2023-12-22T01:26:25;97992.22;;;5.03;63.00
80945;BME280;70400;50.934;11.590;2023-12-22T01:27:16;97994.66;;;4.96;62.89
80945;BME280;70400;50.934;11.590;2023-12-22T01:28:07;97998.06;;;4.97;62.83
80945;BME280;70400;50.934;11.590;2023-12-22T01:28:57;97994.78;;;4.95;63.28
80945;BME280;70400;50.934;11.590;2023-12-22T01:29:48;97996.91;;;4.91;62.88
80945;BME280;70400;50.934;11.590;2023-12-22T01:30:39;98001.63;;;4.88;62.98
80945;BME280;70400;50.934;11.590;2023-12-22T01:31:30;98022.50;;;4.88;63.92
80945;BME280;70400;50.934;11.590;2023-12-22T01:32:21;98012.59;;;4.91;63.42
80945;BME280;70400;50.934;11.590;2023-12-22T01:33:12;98021.06;;;4.93;63.89
80945;BME280;70400;50.934;11.590;2023-12-22T01:34:03;98028.25;;;4.91;63.31
80945;BME280;70400;50.934;11.590;2023-12-22T01:34:53;98016.63;;;4.86;63.45
80945;BME280;70400;50.934;11.590;2023-12-22T01:35:44;98018.06;;;4.80;63.68
80945;BME280;70400;50.934;11.590;2023-12-22T01:36:35;98019.38;;;4.76;64.22
80945;BME280;70400;50.934;11.590;2023-12-22T01:37:26;98022.94;;;4.75;64.50
80945;BME280;70400;50.934;11.590;2023-12-22T01:38:17;98033.91;;;4.78;63.95
80945;BME280;70400;50.934;11.590;2023-12-22T01:39:08;98026.66;;;4.72;63.55
80945;BME280;70400;50.934;11.590;2023-12-22T01:39:59;98026.06;;;4.78;63.69
80945;BME280;70400;50.934;11.590;2023-12-22T01:40:50;98029.84;;;4.84;64.00
80945;BME280;70400;50.934;11.590;2023-12-22T01:41:41;98024.31;;;4.87;63.63
80945;BME280;70400;50.934;11.590;2023-12-22T01:42:32;98029.22;;;4.90;63.15
80945;BME280;70400;50.934;11.590;2023-12-22T01:43:23;98018.41;;;4.85;62.86
80945;BME280;70400;50.934;11.590;2023-12-22T01:44:14;98030.34;;;4.88;63.02
80945;BME280;70400;50.934;11.590;2023-12-22T01:45:06;98028.72;;;4.87;62.99
80945;BME280;70400;50.934;11.590;2023-12-22T01:45:58;98019.41;;;4.84;62.68
80945;BME280;70400;50.934;11.590;2023-12-22T01:46:50;98024.75;;;4.83;62.88
80945;BME280;70400;50.934;11.590;2023-12-22T01:47:42;98027.06;;;4.86;63.33
80945;BME280;70400;50.934;11.590;2023-12-22T01:48:34;98033.31;;;4.93;63.24
80945;BME280;70400;50.934;11.590;2023-12-22T01:49:26;98026.47;;;4.92;63.88
80945;BME280;70400;50.934;11.590;2023-12-22T01:50:17;98034.91;;;4.86;63.41
80945;BME280;70400;50.934;11.590;2023-12-22T01:51:09;98034.97;;;4.94;62.99
80945;BME280;70400;50.934;11.590;2023-12-22T01:52:00;98035.56;;;4.88;63.34
80945;BME280;70400;50.934;11.590;2023-12-22T01:52:51;98039.47;;;4.84;63.93
80945;BME280;70400;50.934;11.590;2023-12-22T01:53:42;98036.09;;;4.91;64.36
80945;BME280;70400;50.934;11.590;2023-12-22T01:54:33;98028.91;;;4.93;63.28
80945;BME280;70400;50.934;11.590;2023-12-22T01:55:24;98030.69;;;4.93;63.82
80945;BME280;70400;50.934;11.590;2023-12-22T01:56:15;98028.91;;;4.93;63.81
80945;BME280;70400;50.934;11.590;2023-12-22T01:57:07;98034.44;;;4.90;64.21
80945;BME280;70400;50.934;11.590;2023-12-22T01:57:58;98029.75;;;4.94;64.65
80945;BME280;70400;50.934;11.590;2023-12-22T01:58:53;98039.84;;;4.89;64.06
80945;BME280;70400;50.934;11.590;2023-12-22T01:59:46;98028.03;;;4.85;64.70
80945;BME280;70400;50.934;11.590;2023-12-22T02:00:39;98032.91;;;4.79;65.08
80945;BME280;70400;50.934;11.590;2023-12-22T02:01:31;98026.91;;;4.87;65.44
80945;BME280;70400;50.934;11.590;2023-12-22T02:02:22;98029.88;;;4.92;64.63
80945;BME280;70400;50.934;11.590;2023-12-22T02:03:14;98030.19;;;4.89;64.88
80945;BME280;70400;50.934;11.590;2023-12-22T02:04:05;98035.44;;;4.89;64.63
80945;BME280;70400;50.934;11.590;2023-12-22T02:04:58;98028.03;;;4.85;65.01
80945;BME280;70400;50.934;11.590;2023-12-22T02:05:49;98029.81;;;4.76;65.44
80945;BME280;70400;50.934;11.590;2023-12-22T02:06:41;98024.09;;;4.81;65.20
80945;BME280;70400;50.934;11.590;2023-12-22T02:07:33;98032.16;;;4.87;65.30
80945;BME280;70400;50.934;11.590;2023-12-22T02:08:25;98031.69;;;4.92;65.12
80945;BME280;70400;50.934;11.590;2023-12-22T02:09:18;98038.53;;;4.93;65.79
80945;BME280;70400;50.934;11.590;2023-12-22T02:10:09;98041.00;;;4.94;64.81
80945;BME280;70400;50.934;11.590;2023-12-22T02:11:00;98030.56;;;4.94;65.00
80945;BME280;70400;50.934;11.590;2023-12-22T02:11:50;98040.34;;;4.92;64.65
80945;BME280;70400;50.934;11.590;2023-12-22T02:12:42;98029.06;;;4.92;65.13
80945;BME280;70400;50.934;11.590;2023-12-22T02:13:32;98032.50;;;4.92;64.57
80945;BME280;70400;50.934;11.590;2023-12-22T02:14:23;98037.72;;;4.92;64.55
80945;BME280;70400;50.934;11.590;2023-12-22T02:15:14;98037.72;;;4.92;64.65
80945;BME280;70400;50.934;11.590;2023-12-22T02:16:11;98039.88;;;4.97;64.52
80945;BME280;70400;50.934;11.590;2023-12-22T02:17:43;98035.25;;;4.91;64.57
80945;BME280;70400;50.934;11.590;2023-12-22T02:18:38;98043.63;;;4.94;64.44
80945;BME280;70400;50.934;11.590;2023-12-22T02:19:51;98033.00;;;4.96;64.12
80945;BME280;70400;50.934;11.590;2023-12-22T02:20:43;98029.56;;;4.95;64.34
80945;BME280;70400;50.934;11.590;2023-12-22T02:21:35;98033.00;;;4.96;63.77
80945;BME280;70400;50.934;11.590;2023-12-22T02:22:29;98035.78;;;4.94;63.87
80945;BME280;70400;50.934;11.590;2023-12-22T02:23:20;98021.69;;;4.87;63.50
80945;BME280;70400;50.934;11.590;2023-12-22T02:24:11;98027.59;;;4.89;63.71
80945;BME280;70400;50.934;11.590;2023-12-22T02:25:02;98025.66;;;4.91;63.62
80945;BME280;70400;50.934;11.590;2023-12-22T02:26:06;98025.56;;;4.83;64.19
80945;BME280;70400;50.934;11.590;2023-12-22T02:27:28;98019.41;;;4.84;65.05
80945;BME280;70400;50.934;11.590;2023-12-22T02:28:19;98029.53;;;4.87;64.46
80945;BME280;70400;50.934;11.590;2023-12-22T02:29:13;98030.56;;;4.94;63.45
80945;BME280;70400;50.934;11.590;2023-12-22T02:30:14;98020.72;;;4.88;63.55
80945;BME280;70400;50.934;11.590;2023-12-22T02:31:33;98018.88;;;4.81;63.62
80945;BME280;70400;50.934;11.590;2023-12-22T02:32:32;98023.81;;;4.84;64.01
80945;BME280;70400;50.934;11.590;2023-12-22T02:33:29;98032.09;;;4.79;63.83
80945;BME280;70400;50.934;11.590;2023-12-22T02:34:22;98039.25;;;4.77;64.31
80945;BME280;70400;50.934;11.590;2023-12-22T02:35:16;98037.81;;;4.83;64.43
80945;BME280;70400;50.934;11.590;2023-12-22T02:36:09;98051.19;;;4.79;64.31
80945;BME280;70400;50.934;11.590;2023-12-22T02:37:04;98041.09;;;4.85;64.75
80945;BME280;70400;50.934;11.590;2023-12-22T02:37:57;98047.09;;;4.77;65.29
80945;BME280;70400;50.934;11.590;2023-12-22T02:38:50;98041.53;;;4.72;66.00
80945;BME280;70400;50.934;11.590;2023-12-22T02:39:43;98046.88;;;4.70;67.05
80945;BME280;70400;50.934;11.590;2023-12-22T02:40:34;98047.06;;;4.69;67.61
80945;BME280;70400;50.934;11.590;2023-12-22T02:41:26;98049.97;;;4.66;68.64
80945;BME280;70400;50.934;11.590;2023-12-22T02:42:18;98055.19;;;4.66;68.93
80945;BME280;70400;50.934;11.590;2023-12-22T02:43:10;98043.56;;;4.60;69.56
80945;BME280;70400;50.934;11.590;2023-12-22T02:44:01;98049.91;;;4.57;69.73
80945;BME280;70400;50.934;11.590;2023-12-22T02:44:52;98053.63;;;4.55;70.15
80945;BME280;70400;50.934;11.590;2023-12-22T02:45:43;98053.50;;;4.56;70.63
80945;BME280;70400;50.934;11.590;2023-12-22T02:46:34;98053.13;;;4.51;71.05
80945;BME280;70400;50.934;11.590;2023-12-22T02:47:26;98053.50;;;4.56;71.24
80945;BME280;70400;50.934;11.590;2023-12-22T02:48:19;98058.22;;;4.53;71.41
80945;BME280;70400;50.934;11.590;2023-12-22T02:49:10;98052.16;;;4.52;72.04
80945;BME280;70400;50.934;11.590;2023-12-22T02:50:04;98043.16;;;4.47;72.19
80945;BME280;70400;50.934;11.590;2023-12-22T02:50:55;98046.28;;;4.50;73.20
80945;BME280;70400;50.934;11.590;2023-12-22T02:51:46;98043.16;;;4.47;72.68
80945;BME280;70400;50.934;11.590;2023-12-22T02:52:37;98047.88;;;4.43;73.12
80945;BME280;70400;50.934;11.590;2023-12-22T02:53:28;98045.41;;;4.42;73.27
80945;BME280;70400;50.934;11.590;2023-12-22T02:54:19;98045.47;;;4.32;73.71
80945;BME280;70400;50.934;11.590;2023-12-22T02:55:10;98039.00;;;4.36;73.55
80945;BME280;70400;50.934;11.590;2023-12-22T02:56:00;98039.13;;;4.34;74.00
80945;BME280;70400;50.934;11.590;2023-12-22T02:56:53;98029.81;;;4.32;74.26
80945;BME280;70400;50.934;11.590;2023-12-22T02:57:44;98041.91;;;4.33;74.70
80945;BME280;70400;50.934;11.590;2023-12-22T02:58:35;98046.00;;;4.35;74.61
80945;BME280;70400;50.934;11.590;2023-12-22T02:59:26;98043.31;;;4.27;74.88
80945;BME280;70400;50.934;11.590;2023-12-22T03:00:19;98042.50;;;4.27;75.34
80945;BME280;70400;50.934;11.590;2023-12-22T03:01:10;98046.09;;;4.26;75.41
80945;BME280;70400;50.934;11.590;2023-12-22T03:02:00;98047.34;;;4.22;75.17
80945;BME280;70400;50.934;11.590;2023-12-22T03:02:51;98065.25;;;4.17;75.64
80945;BME280;70400;50.934;11.590;2023-12-22T03:03:42;98067.34;;;4.13;75.92
80945;BME280;70400;50.934;11.590;2023-12-22T03:04:33;98074.44;;;4.21;75.60
80945;BME280;70400;50.934;11.590;2023-12-22T03:05:24;98078.81;;;4.20;76.15
80945;BME280;70400;50.934;11.590;2023-12-22T03:06:15;98086.78;;;4.19;76.11
80945;BME280;70400;50.934;11.590;2023-12-22T03:07:06;98079.03;;;4.27;76.44
80945;BME280;70400;50.934;11.590;2023-12-22T03:07:56;98088.28;;;4.21;76.89
80945;BME280;70400;50.934;11.590;2023-12-22T03:08:47;98076.66;;;4.16;77.18
80945;BME280;70400;50.934;11.590;2023-12-22T03:09:39;98081.66;;;4.09;78.17
80945;BME280;70400;50.934;11.590;2023-12-22T03:10:30;98080.38;;;4.13;78.55
80945;BME280;70400;50.934;11.590;2023-12-22T03:11:21;98073.31;;;4.05;79.29
80945;BME280;70400;50.934;11.590;2023-12-22T03:12:12;98070.16;;;4.02;79.97
80945;BME280;70400;50.934;11.590;2023-12-22T03:13:03;98066.97;;;3.90;79.97
80945;BME280;70400;50.934;11.590;2023-12-22T03:13:53;98051.31;;;3.90;80.49
80945;BME280;70400;50.934;11.590;2023-12-22T03:14:44;98064.19;;;3.91;80.44
80945;BME280;70400;50.934;11.590;2023-12-22T03:15:35;98067.91;;;3.89;81.01
80945;BME280;70400;50.934;11.590;2023-12-22T03:16:26;98070.53;;;3.89;80.87
80945;BME280;70400;50.934;11.590;2023-12-22T03:17:17;98068.91;;;3.88;80.50
80945;BME280;70400;50.934;11.590;2023-12-22T03:18:07;98091.56;;;3.87;80.78
80945;BME280;70400;50.934;11.590;2023-12-22T03:18:58;98070.53;;;3.89;80.95
80945;BME280;70400;50.934;11.590;2023-12-22T03:19:49;98085.91;;;3.92;79.82
80945;BME280;70400;50.934;11.590;2023-12-22T03:20:40;98072.75;;;3.84;79.92
80945;BME280;70400;50.934;11.590;2023-12-22T03:21:31;98081.63;;;3.91;80.17
80945;BME280;70400;50.934;11.590;2023-12-22T03:22:22;98080.88;;;3.81;80.71
80945;BME280;70400;50.934;11.590;2023-12-22T03:23:12;98089.00;;;3.78;80.79
80945;BME280;70400;50.934;11.590;2023-12-22T03:24:03;98081.31;;;3.76;80.51
80945;BME280;70400;50.934;11.590;2023-12-22T03:24:54;98102.47;;;3.73;80.44
80945;BME280;70400;50.934;11.590;2023-12-22T03:25:45;98099.19;;;3.71;80.11
80945;BME280;70400;50.934;11.590;2023-12-22T03:26:36;98094.34;;;3.76;80.69
80945;BME280;70400;50.934;11.590;2023-12-22T03:27:27;98078.56;;;3.78;80.22
80945;BME280;70400;50.934;11.590;2023-12-22T03:28:18;98080.38;;;3.77;80.81
80945;BME280;70400;50.934;11.590;2023-12-22T03:29:09;98103.03;;;3.77;80.20
80945;BME280;70400;50.934;11.590;2023-12-22T03:29:59;98096.69;;;3.79;80.37
80945;BME280;70400;50.934;11.590;2023-12-22T03:30:53;98102.34;;;3.75;80.38
80945;BME280;70400;50.934;11.590;2023-12-22T03:31:44;98103.16;;;3.75;80.71
80945;BME280;70400;50.934;11.590;2023-12-22T03:32:35;98117.16;;;3.74;80.88
80945;BME280;70400;50.934;11.590;2023-12-22T03:33:26;98104.25;;;3.73;80.90
80945;BME280;70400;50.934;11.590;2023-12-22T03:34:17;98097.56;;;3.70;80.76
80945;BME280;70400;50.934;11.590;2023-12-22T03:35:08;98102.78;;;3.70;80.87
80945;BME280;70400;50.934;11.590;2023-12-22T03:35:59;98108.81;;;3.70;81.22
80945;BME280;70400;50.934;11.590;2023-12-22T03:36:50;98100.69;;;3.74;80.96
80945;BME280;70400;50.934;11.590;2023-12-22T03:37:41;98103.84;;;3.77;80.57
80945;BME280;70400;50.934;11.590;2023-12-22T03:38:32;98107.25;;;3.78;80.52
80945;BME280;70400;50.934;11.590;2023-12-22T03:39:23;98107.25;;;3.78;80.46
80945;BME280;70400;50.934;11.590;2023-12-22T03:40:13;98102.72;;;3.80;79.95
80945;BME280;70400;50.934;11.590;2023-12-22T03:41:04;98103.66;;;3.79;79.92
80945;BME280;70400;50.934;11.590;2023-12-22T03:41:55;98102.72;;;3.80;80.07
80945;BME280;70400;50.934;11.590;2023-12-22T03:42:46;98101.75;;;3.81;79.45
80945;BME280;70400;50.934;11.590;2023-12-22T03:43:37;98105.53;;;3.86;79.37
80945;BME280;70400;50.934;11.590;2023-12-22T03:44:28;98114.47;;;3.84;79.91
80945;BME280;70400;50.934;11.590;2023-12-22T03:45:19;98088.03;;;3.79;80.13
80945;BME280;70400;50.934;11.590;2023-12-22T03:46:09;98099.69;;;3.84;80.36
80945;BME280;70400;50.934;11.590;2023-12-22T03:47:01;98091.84;;;3.84;80.08
80945;BME280;70400;50.934;11.590;2023-12-22T03:47:51;98098.44;;;3.79;80.75
80945;BME280;70400;50.934;11.590;2023-12-22T03:48:42;98091.91;;;3.75;80.46
80945;BME280;70400;50.934;11.590;2023-12-22T03:49:33;98093.41;;;3.77;80.02
80945;BME280;70400;50.934;11.590;2023-12-22T03:50:24;98105.25;;;3.72;79.83
80945;BME280;70400;50.934;11.590;2023-12-22T03:51:15;98091.38;;;3.71;80.03
80945;BME280;70400;50.934;11.590;2023-12-22T03:52:06;98093.84;;;3.73;79.90
80945;BME280;70400;50.934;11.590;2023-12-22T03:52:57;98098.53;;;3.69;80.03
80945;BME280;70400;50.934;11.590;2023-12-22T03:53:48;98109.22;;;3.66;80.55
80945;BME280;70400;50.934;11.590;2023-12-22T03:54:39;98094.28;;;3.68;80.28
80945;BME280;70400;50.934;11.590;2023-12-22T03:55:29;98108.81;;;3.70;80.00
80945;BME280;70400;50.934;11.590;2023-12-22T03:56:21;98105.75;;;3.75;79.53
80945;BME280;70400;50.934;11.590;2023-12-22T03:57:12;98112.91;;;3.73;79.71
80945;BME280;70400;50.934;11.590;2023-12-22T03:58:02;98113.72;;;3.74;79.55
80945;BME280;70400;50.934;11.590;2023-12-22T03:58:55;98110.16;;;3.75;79.80
80945;BME280;70400;50.934;11.590;2023-12-22T03:59:46;98129.22;;;3.75;80.11
80945;BME280;70400;50.934;11.590;2023-12-22T04:00:37;98117.44;;;3.71;79.42
80945;BME280;70400;50.934;11.590;2023-12-22T04:01:28;98110.38;;;3.81;79.44
80945;BME280;70400;50.934;11.590;2023-12-22T04:02:19;98138.09;;;3.82;79.23
80945;BME280;70400;50.934;11.590;2023-12-22T04:03:09;98122.47;;;3.82;79.37
80945;BME280;70400;50.934;11.590;2023-12-22T04:04:00;98133.41;;;3.86;79.48
80945;BME280;70400;50.934;11.590;2023-12-22T04:04:51;98131.78;;;3.85;79.38
80945;BME280;70400;50.934;11.590;2023-12-22T04:05:42;98133.41;;;3.86;80.15
80945;BME280;70400;50.934;11.590;2023-12-22T04:06:38;98142.50;;;3.82;79.59
80945;BME280;70400;50.934;11.590;2023-12-22T04:07:28;98152.56;;;3.77;79.38
80945;BME280;70400;50.934;11.590;2023-12-22T04:08:19;98127.59;;;3.74;79.31
80945;BME280;70400;50.934;11.590;2023-12-22T04:09:13;98134.56;;;3.74;79.20
80945;BME280;70400;50.934;11.590;2023-12-22T04:10:04;98135.53;;;3.73;79.25
80945;BME280;70400;50.934;11.590;2023-12-22T04:10:55;98132.56;;;3.67;79.97
80945;BME280;70400;50.934;11.590;2023-12-22T04:11:46;98140.97;;;3.61;80.67
80945;BME280;70400;50.934;11.590;2023-12-22T04:12:37;98126.47;;;3.49;80.18
80945;BME280;70400;50.934;11.590;2023-12-22T04:13:28;98124.91;;;3.29;80.79
80945;BME280;70400;50.934;11.590;2023-12-22T04:14:19;98123.28;;;3.18;81.81
80945;BME280;70400;50.934;11.590;2023-12-22T04:15:10;98132.38;;;3.14;81.71
80945;BME280;70400;50.934;11.590;2023-12-22T04:16:01;98135.53;;;3.08;81.59
80945;BME280;70400;50.934;11.590;2023-12-22T04:16:55;98137.19;;;2.99;83.07
80945;BME280;70400;50.934;11.590;2023-12-22T04:17:48;98130.38;;;2.98;82.96
80945;BME280;70400;50.934;11.590;2023-12-22T04:18:40;98132.00;;;2.99;83.08
80945;BME280;70400;50.934;11.590;2023-12-22T04:19:31;98139.13;;;2.97;83.70
80945;BME280;70400;50.934;11.590;2023-12-22T04:20:22;98140.09;;;2.96;83.85
80945;BME280;70400;50.934;11.590;2023-12-22T04:21:14;98152.28;;;2.95;84.17
80945;BME280;70400;50.934;11.590;2023-12-22T04:22:05;98156.53;;;2.96;83.81
80945;BME280;70400;50.934;11.590;2023-12-22T04:22:56;98153.41;;;2.93;83.25
80945;BME280;70400;50.934;11.590;2023-12-22T04:23:47;98129.00;;;2.94;83.83
80945;BME280;70400;50.934;11.590;2023-12-22T04:24:38;98138.72;;;2.92;83.58
80945;BME280;70400;50.934;11.590;2023-12-22T04:25:29;98137.38;;;2.88;84.20
80945;BME280;70400;50.934;11.590;2023-12-22T04:26:20;98154.09;;;2.85;84.41
80945;BME280;70400;50.934;11.590;2023-12-22T04:27:11;98140.09;;;2.86;84.57
80945;BME280;70400;50.934;11.590;2023-12-22T04:28:02;98147.38;;;2.82;84.90
80945;BME280;70400;50.934;11.590;2023-12-22T04:28:53;98126.97;;;2.88;84.85
80945;BME280;70400;50.934;11.590;2023-12-22T04:29:43;98136.94;;;2.92;85.12
80945;BME280;70400;50.934;11.590;2023-12-22T04:30:34;98121.19;;;2.84;85.27
80945;BME280;70400;50.934;11.590;2023-12-22T04:31:26;98126.69;;;2.81;85.28
80945;BME280;70400;50.934;11.590;2023-12-22T04:32:17;98133.41;;;2.83;85.40
80945;BME280;70400;50.934;11.590;2023-12-22T04:33:07;98134.63;;;2.79;85.64
80945;BME280;70400;50.934;11.590;2023-12-22T04:33:58;98126.84;;;2.70;85.96
80945;BME280;70400;50.934;11.590;2023-12-22T04:34:49;98133.00;;;2.69;85.75